Upstream stations:
Downstream station:
SHEF ID: BRIO2 Canadian River at Bridgeport, OK
STATION TYPE:
Regulating: Stage = 15.00, Flow = 8545
STAGE RIV-FLOW
ft cfs
Ccp-Rev Ccp-Rev
(US/Central)
05/13 00:00 12.60 2190
05/13 01:00 12.60 2190
05/13 02:00 12.59 2176
05/13 03:00 12.58 2161
05/13 04:00 12.57 2146
05/13 05:00 12.56 2132
05/13 06:00 12.56 2132
05/13 07:00 13.15 3111
05/13 08:00 13.03 2891
05/13 09:00 12.96 2768
05/13 10:00 12.93 2716
05/13 11:00 12.90 2665
05/13 12:00 12.86 2598
05/13 13:00 12.86 2598
05/13 14:00 12.83 2548
05/13 15:00 12.82 2532
05/13 16:00 12.81 2516
05/13 17:00 12.80 2500
05/13 18:00 12.79 2483
05/13 19:00 12.75 2420
05/13 20:00 12.67 2295
05/13 21:00 12.63 2235
05/13 22:00 9.80 111
05/13 23:00 ---- ----